Time;durP1;ratioP1;P1;durP2;ratioP2;P2;SDS_P1;SDS_P2;PMS_P1;PMS_P2;Temp;Humidity;BMP_temperature;BMP_pressure;BME280_temperature;BME280_humidity;BME280_pressure;Samples;Min_cycle;Max_cycle;Signal;HPM_P1;HPM_P2
2023/04/21 00:00:22;;;;;;;;;14.25;14.25;;;;;11.76;82.76;98613.72;5012059;28;47288;-78
2023/04/21 00:02:48;;;;;;;;;18.00;17.75;;;;;11.76;82.22;98611.91;5013909;28;45385;-78
2023/04/21 00:05:14;;;;;;;;;24.25;17.25;;;;;11.75;82.60;98604.91;5013781;28;45398;-79
2023/04/21 00:07:40;;;;;;;;;17.50;16.50;;;;;11.73;82.59;98598.84;5029041;28;45753;-79
2023/04/21 00:10:10;;;;;;;;;18.75;17.75;;;;;11.75;82.47;98601.41;5029105;28;46957;-78
2023/04/21 00:12:37;;;;;;;;;11.25;11.25;;;;;11.75;82.02;98593.47;5028595;28;45742;-79
2023/04/21 00:15:03;;;;;;;;;14.00;13.00;;;;;11.73;81.80;98583.00;5012337;28;45438;-78
2023/04/21 00:17:28;;;;;;;;;14.25;12.25;;;;;11.76;81.78;98579.38;5013666;28;45352;-78
2023/04/21 00:19:54;;;;;;;;;16.00;15.50;;;;;11.77;81.96;98578.44;5012073;28;46107;-78
2023/04/21 00:22:20;;;;;;;;;19.50;16.25;;;;;11.79;81.94;98580.06;5016791;28;45544;-79
2023/04/21 00:24:45;;;;;;;;;12.00;12.00;;;;;11.80;81.85;98565.09;5016789;28;45400;-78
2023/04/21 00:27:12;;;;;;;;;7.25;7.00;;;;;11.82;81.69;98572.00;5016909;28;45349;-78
2023/04/21 00:29:39;;;;;;;;;14.50;13.00;;;;;11.82;81.57;98571.13;5016326;28;46069;-78
2023/04/21 00:32:07;;;;;;;;;14.50;13.25;;;;;11.82;82.13;98576.41;5016607;28;45338;-78
2023/04/21 00:34:33;;;;;;;;;15.75;15.75;;;;;11.81;82.00;98566.78;5016618;28;45427;-78
2023/04/21 00:36:58;;;;;;;;;18.25;16.25;;;;;11.78;81.91;98573.09;5017081;28;45488;-78
2023/04/21 00:39:24;;;;;;;;;18.25;16.00;;;;;11.77;82.15;98567.88;5016762;28;46071;-78
2023/04/21 00:41:50;;;;;;;;;18.50;17.75;;;;;11.75;81.83;98572.34;5031616;28;45421;-79
2023/04/21 00:44:15;;;;;;;;;19.75;16.50;;;;;11.73;82.66;98584.81;5016947;28;45534;-79
2023/04/21 00:46:42;;;;;;;;;14.25;14.25;;;;;11.72;82.72;98578.69;5016631;28;45432;-78
2023/04/21 00:49:07;;;;;;;;;19.75;16.25;;;;;11.73;83.10;98577.72;5016243;28;45374;-79
2023/04/21 00:51:34;;;;;;;;;18.75;16.00;;;;;11.74;82.25;98568.00;5016574;28;45335;-79
2023/04/21 00:54:03;;;;;;;;;17.50;16.00;;;;;11.72;82.68;98580.47;5031818;28;45338;-78
2023/04/21 00:56:31;;;;;;;;;13.25;13.25;;;;;11.70;83.09;98579.69;5001582;28;45447;-78
2023/04/21 00:58:58;;;;;;;;;18.00;17.25;;;;;11.67;82.83;98561.38;5026350;28;47353;-79
2023/04/21 01:01:24;;;;;;;;;21.25;18.25;;;;;11.65;83.05;98569.38;5014315;28;45351;-78
2023/04/21 01:03:50;;;;;;;;;19.25;16.75;;;;;11.63;82.81;98570.38;5016221;28;45295;-78
2023/04/21 01:06:17;;;;;;;;;19.50;15.50;;;;;11.62;83.05;98572.16;5031958;28;45385;-78
2023/04/21 01:08:44;;;;;;;;;18.00;17.50;;;;;11.61;83.21;98570.47;5016189;28;45560;-79
2023/04/21 01:11:11;;;;;;;;;17.25;14.75;;;;;11.62;83.75;98584.50;5016381;28;45427;-79
2023/04/21 01:13:37;;;;;;;;;17.25;15.50;;;;;11.62;83.90;98576.59;5016095;28;45478;-79
2023/04/21 01:16:03;;;;;;;;;17.50;17.50;;;;;11.63;83.87;98580.94;5031704;28;45744;-79
2023/04/21 01:18:29;;;;;;;;;13.75;12.25;;;;;11.64;83.57;98580.00;5016124;28;46194;-79
2023/04/21 01:20:54;;;;;;;;;5.33;5.00;;;;;11.64;83.57;98594.06;5016432;28;45350;-79
2023/04/21 01:23:20;;;;;;;;;14.50;14.50;;;;;11.64;83.02;98591.41;5005133;28;45439;-79
2023/04/21 01:25:46;;;;;;;;;14.00;13.00;;;;;11.62;83.25;98585.38;5009627;28;45347;-79
2023/04/21 01:28:11;;;;;;;;;10.25;10.25;;;;;11.66;83.03;98578.16;5014215;28;46773;-79
2023/04/21 01:30:37;;;;;;;;;12.50;10.00;;;;;11.65;83.26;98581.72;5016385;28;45476;-79
2023/04/21 01:33:02;;;;;;;;;14.25;14.25;;;;;11.65;83.83;98576.44;5015522;28;45460;-80
2023/04/21 01:35:28;;;;;;;;;11.75;11.75;;;;;11.64;84.04;98577.38;5015763;28;45516;-80
2023/04/21 01:37:54;;;;;;;;;13.75;11.50;;;;;11.65;84.00;98571.16;5016292;28;45493;-80
2023/04/21 01:40:19;;;;;;;;;10.50;9.00;;;;;11.62;83.95;98556.31;5016259;28;45356;-80
2023/04/21 01:42:45;;;;;;;;;11.75;10.00;;;;;11.62;83.56;98550.19;5015872;28;45463;-80
2023/04/21 01:45:10;;;;;;;;;11.25;9.00;;;;;11.62;83.85;98548.41;5016180;28;45730;-80
2023/04/21 01:47:36;;;;;;;;;12.75;11.25;;;;;11.61;84.01;98548.47;5015783;28;45381;-80
2023/04/21 01:50:02;;;;;;;;;7.75;6.75;;;;;11.58;84.15;98546.00;5015579;28;45365;-80
2023/04/21 01:52:28;;;;;;;;;10.00;10.00;;;;;11.58;84.29;98551.28;5031417;28;45510;-80
2023/04/21 01:54:53;;;;;;;;;13.25;12.75;;;;;11.57;84.91;98555.72;5009902;28;45403;-80
2023/04/21 01:57:19;;;;;;;;;13.25;11.75;;;;;11.57;84.90;98562.78;5030951;28;47276;-80
2023/04/21 01:59:45;;;;;;;;;9.50;9.50;;;;;11.56;85.39;98556.66;5016227;28;45389;-79
2023/04/21 02:02:10;;;;;;;;;14.75;14.00;;;;;11.58;85.00;98562.69;5030915;28;45492;-80
2023/04/21 02:04:36;;;;;;;;;13.50;12.25;;;;;11.55;85.30;98565.53;5015829;28;45546;-80
2023/04/21 02:07:01;;;;;;;;;15.00;13.75;;;;;11.52;85.59;98573.59;5015648;28;45619;-80
2023/04/21 02:09:27;;;;;;;;;14.00;13.75;;;;;11.48;85.28;98561.47;5030876;28;45353;-80
2023/04/21 02:11:54;;;;;;;;;16.00;14.00;;;;;11.45;84.99;98554.56;5015191;28;45543;-80
2023/04/21 02:14:19;;;;;;;;;19.00;19.00;;;;;11.43;84.90;98555.59;5019452;28;45467;-80
2023/04/21 02:16:45;;;;;;;;;16.75;16.25;;;;;11.38;84.70;98552.34;5020312;28;46111;-80
2023/04/21 02:19:10;;;;;;;;;19.75;15.00;;;;;11.32;85.48;98560.59;5015093;28;45524;-80
2023/04/21 02:21:36;;;;;;;;;22.75;17.75;;;;;11.28;86.01;98557.25;5015575;28;45423;-80
2023/04/21 02:24:01;;;;;;;;;20.75;19.25;;;;;11.26;85.89;98563.53;5014710;28;45445;-80
2023/04/21 02:26:26;;;;;;;;;15.25;15.00;;;;;11.22;86.02;98554.09;5029970;28;46341;-80
2023/04/21 02:28:52;;;;;;;;;17.67;17.67;;;;;11.21;86.12;98562.94;5015635;28;45424;-80
2023/04/21 02:31:17;;;;;;;;;16.25;15.75;;;;;11.16;86.25;98553.47;5015661;28;45384;-80
2023/04/21 02:33:43;;;;;;;;;11.25;11.00;;;;;11.15;86.26;98558.81;5015682;28;45317;-80
2023/04/21 02:36:09;;;;;;;;;22.00;18.67;;;;;11.12;86.06;98554.53;5015258;28;45371;-80
2023/04/21 02:38:35;;;;;;;;;19.75;19.00;;;;;11.12;85.81;98551.06;5014894;28;45413;-80
2023/04/21 02:41:00;;;;;;;;;17.33;17.33;;;;;11.09;86.14;98552.06;5014904;28;45369;-80
2023/04/21 02:43:25;;;;;;;;;20.00;17.25;;;;;11.10;85.91;98551.13;5014007;28;45615;-80
2023/04/21 02:45:51;;;;;;;;;19.00;18.33;;;;;11.10;86.14;98547.63;5009925;28;46083;-80
2023/04/21 02:48:21;;;;;;;;;23.67;20.33;;;;;11.07;86.52;98553.91;5014763;28;45466;-80
2023/04/21 02:50:48;;;;;;;;;22.67;20.00;;;;;11.06;86.55;98544.28;5014764;28;45444;-80
2023/04/21 02:53:13;;;;;;;;;24.00;20.33;;;;;11.04;86.31;98537.41;5014897;28;45487;-80
2023/04/21 02:55:39;;;;;;;;;21.25;20.75;;;;;11.01;85.97;98530.50;5013865;28;45864;-80
2023/04/21 02:58:04;;;;;;;;;16.67;16.67;;;;;10.96;86.35;98537.81;5014417;28;45583;-79
2023/04/21 03:00:29;;;;;;;;;23.00;21.67;;;;;10.93;86.21;98537.09;5014768;28;45369;-80
2023/04/21 03:02:55;;;;;;;;;20.67;18.33;;;;;10.87;86.54;98533.00;5014176;28;45379;-80
2023/04/21 03:05:30;;;;;;;;;27.00;23.67;;;;;10.83;86.62;98529.66;5107623;27;45332;-79
2023/04/21 03:07:55;;;;;;;;;25.67;22.67;;;;;10.80;86.74;98521.03;5090873;27;45454;-79
2023/04/21 03:10:21;;;;;;;;;22.25;22.25;;;;;10.76;86.96;98528.25;5086088;27;45449;-79
2023/04/21 03:12:46;;;;;;;;;15.00;13.00;;;;;10.70;86.49;98523.31;5091187;27;45557;-79
2023/04/21 03:15:13;;;;;;;;;25.67;24.33;;;;;10.64;86.49;98528.03;5090614;27;45510;-78
2023/04/21 03:17:39;;;;;;;;;22.00;21.00;;;;;10.66;86.57;98520.91;5089733;27;45487;-79
2023/04/21 03:20:06;;;;;;;;;31.00;29.33;;;;;10.64;86.98;98530.66;5090949;27;45547;-79
2023/04/21 03:22:32;;;;;;;;;30.33;26.33;;;;;10.61;86.81;98525.53;5090872;27;45416;-79
2023/04/21 03:24:57;;;;;;;;;25.33;22.67;;;;;10.59;86.88;98524.75;5090440;27;45433;-79
2023/04/21 03:27:22;;;;;;;;;28.33;25.67;;;;;10.59;86.81;98520.34;5106210;27;45413;-78
2023/04/21 03:29:48;;;;;;;;;35.67;30.00;;;;;10.59;87.07;98514.22;5090859;27;45498;-79
2023/04/21 03:32:13;;;;;;;;;33.00;29.67;;;;;10.56;86.80;98517.03;5090756;27;45453;-79
2023/04/21 03:34:39;;;;;;;;;35.33;32.33;;;;;10.57;86.76;98519.56;5086814;27;46169;-78
2023/04/21 03:37:04;;;;;;;;;32.33;29.00;;;;;10.56;86.82;98531.03;5090974;27;45421;-79
2023/04/21 03:39:29;;;;;;;;;25.00;23.67;;;;;10.57;87.35;98530.09;5090714;27;45442;-78
2023/04/21 03:41:55;;;;;;;;;34.33;28.67;;;;;10.58;86.49;98536.22;5090342;27;45538;-78
2023/04/21 03:44:20;;;;;;;;;30.00;25.00;;;;;10.57;86.67;98542.41;5090748;27;45511;-78
2023/04/21 03:46:46;;;;;;;;;30.00;27.33;;;;;10.57;87.20;98543.28;5090668;27;45394;-78
2023/04/21 03:49:11;;;;;;;;;30.33;23.33;;;;;10.58;87.13;98541.50;5091027;27;45407;-78
2023/04/21 03:51:36;;;;;;;;;33.67;29.00;;;;;10.58;87.40;98537.06;5090550;27;45344;-78
2023/04/21 03:54:02;;;;;;;;;31.33;26.67;;;;;10.59;87.02;98536.16;5088689;27;47062;-79
2023/04/21 03:56:27;;;;;;;;;8.33;5.67;;;;;10.61;86.48;98552.75;5088947;27;45483;-78
2023/04/21 03:58:53;;;;;;;;;16.67;15.33;;;;;10.59;86.91;98559.00;5089148;27;45457;-78
2023/04/21 04:01:18;;;;;;;;;22.00;17.00;;;;;10.62;86.64;98551.81;5089792;27;45380;-78
2023/04/21 04:03:44;;;;;;;;;35.33;30.33;;;;;10.60;86.38;98540.50;5088079;27;46884;-78
2023/04/21 04:06:09;;;;;;;;;36.67;31.00;;;;;10.58;86.04;98546.75;5090179;27;45529;-78
2023/04/21 04:08:35;;;;;;;;;31.00;27.33;;;;;10.58;86.23;98558.16;5089994;27;45366;-79
2023/04/21 04:11:00;;;;;;;;;36.33;31.00;;;;;10.56;86.48;98560.00;5088182;27;45360;-79
2023/04/21 04:13:26;;;;;;;;;25.33;21.67;;;;;10.59;86.29;98564.28;5089530;27;46543;-78
2023/04/21 04:15:52;;;;;;;;;32.33;28.00;;;;;10.57;86.58;98561.72;5081563;27;45595;-78
2023/04/21 04:18:17;;;;;;;;;20.33;19.33;;;;;10.58;86.14;98558.16;5076313;28;45451;-78
2023/04/21 04:20:43;;;;;;;;;30.67;28.67;;;;;10.58;86.00;98562.56;5076089;27;45387;-78
2023/04/21 04:23:08;;;;;;;;;29.33;26.00;;;;;10.54;85.81;98567.16;5075755;27;45569;-79
2023/04/21 04:25:33;;;;;;;;;38.33;32.67;;;;;10.52;85.98;98568.16;5075973;27;45498;-79
2023/04/21 04:27:59;;;;;;;;;28.67;23.67;;;;;10.48;86.15;98555.13;5075866;27;45886;-78
2023/04/21 04:30:27;;;;;;;;;35.33;32.67;;;;;10.45;86.15;98554.44;5076149;28;45490;-78
2023/04/21 04:32:52;;;;;;;;;38.33;31.00;;;;;10.43;86.11;98557.13;5075858;27;45507;-77
2023/04/21 04:35:18;;;;;;;;;39.00;35.67;;;;;10.41;86.12;98548.44;5076272;28;45330;-78
2023/04/21 04:37:44;;;;;;;;;39.00;32.33;;;;;10.39;86.60;98546.84;5075360;27;45459;-78
2023/04/21 04:40:13;;;;;;;;;36.00;33.00;;;;;10.36;86.27;98537.28;5074356;28;45598;-78
2023/04/21 04:42:38;;;;;;;;;40.00;34.33;;;;;10.33;86.63;98540.06;5075340;28;45658;-78
2023/04/21 04:45:07;;;;;;;;;30.50;28.50;;;;;10.32;86.46;98540.16;5075814;27;45504;-78
2023/04/21 04:47:32;;;;;;;;;39.67;33.00;;;;;10.29;86.48;98535.88;5076076;27;45407;-77
2023/04/21 04:49:58;;;;;;;;;38.33;33.67;;;;;10.29;86.53;98541.13;5075840;27;45544;-78
2023/04/21 04:52:23;;;;;;;;;35.67;32.67;;;;;10.31;87.06;98541.06;5071294;27;45425;-77
2023/04/21 04:54:49;;;;;;;;;34.33;29.00;;;;;10.36;86.88;98541.72;5067047;28;45367;-78
2023/04/21 04:57:14;;;;;;;;;36.33;33.00;;;;;10.37;86.46;98543.41;5073815;28;45321;-79
2023/04/21 04:59:39;;;;;;;;;39.33;33.67;;;;;10.39;86.54;98552.09;5071070;27;45548;-79
2023/04/21 05:02:06;;;;;;;;;29.00;26.33;;;;;10.40;86.31;98559.06;5066348;27;45436;-79
2023/04/21 05:04:33;;;;;;;;;33.33;29.67;;;;;10.40;86.47;98553.78;5074980;27;45404;-79
2023/04/21 05:06:58;;;;;;;;;40.33;32.67;;;;;10.41;86.12;98563.41;5075636;27;45500;-78
2023/04/21 05:09:24;;;;;;;;;36.33;32.33;;;;;10.44;86.16;98576.44;5074879;27;45490;-78
2023/04/21 05:11:50;;;;;;;;;39.00;32.67;;;;;10.48;86.20;98580.63;5074752;27;46089;-61
2023/04/21 05:14:15;;;;;;;;;36.33;35.00;;;;;10.53;86.16;98578.63;5072385;27;45427;-61
2023/04/21 05:16:42;;;;;;;;;35.33;30.67;;;;;10.58;85.68;98586.31;5073219;27;45933;-60
2023/04/21 05:19:07;;;;;;;;;44.33;35.00;;;;;10.61;85.97;98589.66;5090542;27;45533;-60
2023/04/21 05:21:33;;;;;;;;;36.33;31.67;;;;;10.66;85.81;98592.06;5074956;27;45359;-61
2023/04/21 05:23:58;;;;;;;;;41.33;33.67;;;;;10.69;85.49;98591.94;5074189;27;45405;-61
2023/04/21 05:26:26;;;;;;;;;32.67;31.00;;;;;10.70;85.84;98591.00;5072405;27;45408;-62
2023/04/21 05:28:57;;;;;;;;;43.67;33.67;;;;;10.70;85.53;98591.84;5069917;28;45540;-60
2023/04/21 05:31:24;;;;;;;;;42.67;35.00;;;;;10.71;85.49;98585.66;5068371;28;48464;-60
2023/04/21 05:33:49;;;;;;;;;40.67;34.67;;;;;10.72;85.55;98581.22;5073978;28;45369;-60
2023/04/21 05:36:15;;;;;;;;;40.67;35.00;;;;;10.76;85.33;98586.25;5074717;27;45380;-60
2023/04/21 05:38:40;;;;;;;;;46.00;36.00;;;;;10.75;85.19;98574.00;5074252;27;45393;-60
2023/04/21 05:41:06;;;;;;;;;41.67;36.33;;;;;10.76;85.15;98575.72;5074032;27;45533;-60
2023/04/21 05:43:34;;;;;;;;;44.00;37.00;;;;;10.76;85.28;98570.44;5074426;28;45468;-60
2023/04/21 05:46:07;;;;;;;;;32.67;28.67;;;;;10.77;85.23;98566.03;5074068;27;45561;-60
2023/04/21 05:48:33;;;;;;;;;35.67;31.00;;;;;10.77;85.47;98579.19;5071950;28;45512;-60
2023/04/21 05:51:12;;;;;;;;;41.00;33.00;;;;;10.79;85.58;98578.19;5073886;28;46256;-60
2023/04/21 05:53:38;;;;;;;;;38.67;34.33;;;;;10.82;85.73;98574.56;5073966;28;45403;-60
2023/04/21 05:56:05;;;;;;;;;38.67;34.67;;;;;10.88;85.72;98581.31;5074415;27;45391;-60
2023/04/21 05:58:30;;;;;;;;;36.67;34.33;;;;;10.94;85.65;98573.09;5074089;27;45510;-60
2023/04/21 06:00:55;;;;;;;;;41.33;35.33;;;;;11.02;85.57;98578.84;5074015;27;45457;-60
2023/04/21 06:03:21;;;;;;;;;34.00;30.33;;;;;11.06;85.25;98578.59;5073792;27;45533;-60
2023/04/21 06:05:46;;;;;;;;;33.67;31.33;;;;;11.13;85.34;98585.28;5074368;27;45901;-60
2023/04/21 06:08:12;;;;;;;;;32.00;30.00;;;;;11.21;84.98;98584.03;5073964;27;45332;-60
2023/04/21 06:10:37;;;;;;;;;27.00;27.00;;;;;11.27;84.57;98583.72;5073421;28;45405;-60
2023/04/21 06:13:03;;;;;;;;;30.67;26.33;;;;;11.32;84.05;98577.28;5074023;27;45454;-60
2023/04/21 06:15:28;;;;;;;;;24.25;22.25;;;;;11.37;84.06;98577.91;5072574;28;45419;-60
2023/04/21 06:17:56;;;;;;;;;25.50;20.50;;;;;11.42;83.69;98569.72;5073677;27;45525;-60
2023/04/21 06:20:22;;;;;;;;;18.25;18.25;;;;;11.47;83.55;98565.06;5073861;27;45467;-60
2023/04/21 06:22:47;;;;;;;;;16.50;15.50;;;;;11.50;83.08;98565.75;5074002;27;45355;-60
2023/04/21 06:25:12;;;;;;;;;18.25;17.50;;;;;11.58;82.67;98556.56;5073940;27;45440;-60
2023/04/21 06:27:38;;;;;;;;;21.50;19.00;;;;;11.65;82.91;98561.44;5073615;27;45292;-60
2023/04/21 06:30:03;;;;;;;;;25.25;20.75;;;;;11.72;82.64;98557.56;5073768;27;45940;-60
2023/04/21 06:32:29;;;;;;;;;17.25;14.75;;;;;11.79;82.18;98563.38;5074017;27;45329;-60
2023/04/21 06:34:54;;;;;;;;;23.67;19.67;;;;;11.82;82.31;98569.34;5073671;27;45426;-61
2023/04/21 06:37:19;;;;;;;;;24.75;21.50;;;;;11.89;82.08;98556.69;5073477;27;45321;-60
2023/04/21 06:39:45;;;;;;;;;26.50;24.25;;;;;11.97;82.21;98558.88;5073429;27;46496;-61
2023/04/21 06:42:10;;;;;;;;;20.50;20.50;;;;;12.03;81.91;98545.34;5073502;27;45323;-64
2023/04/21 06:44:37;;;;;;;;;23.00;21.75;;;;;12.08;81.64;98541.50;5073192;27;45597;-62
2023/04/21 06:47:02;;;;;;;;;21.50;19.50;;;;;12.13;81.39;98547.38;5089303;27;45469;-60
2023/04/21 06:49:28;;;;;;;;;12.25;8.50;;;;;12.19;81.27;98547.06;5073776;27;46272;-61
2023/04/21 06:51:53;;;;;;;;;20.75;19.50;;;;;12.24;80.94;98546.78;5073659;28;45584;-60
2023/04/21 06:54:18;;;;;;;;;22.50;20.25;;;;;12.28;80.70;98552.75;5071539;28;45436;-60
2023/04/21 06:56:44;;;;;;;;;20.00;18.50;;;;;12.32;80.59;98541.94;5073376;27;45483;-61
2023/04/21 06:59:09;;;;;;;;;22.00;20.50;;;;;12.34;80.58;98537.41;5072282;28;47283;-60
2023/04/21 07:01:35;;;;;;;;;20.00;15.00;;;;;12.39;80.20;98534.50;5073917;27;45454;-61
2023/04/21 07:04:00;;;;;;;;;16.50;15.75;;;;;12.44;80.29;98538.59;5073535;27;46019;-61
2023/04/21 07:06:26;;;;;;;;;19.00;17.75;;;;;12.49;80.02;98528.59;5073806;27;45412;-60
2023/04/21 07:08:51;;;;;;;;;17.75;17.25;;;;;12.56;79.62;98537.91;5060539;27;45523;-61
2023/04/21 07:11:16;;;;;;;;;16.00;16.00;;;;;12.64;79.41;98539.25;5070165;28;45390;-62
2023/04/21 07:13:42;;;;;;;;;18.00;16.00;;;;;12.69;79.00;98543.34;5073442;28;45456;-62
2023/04/21 07:16:07;;;;;;;;;15.00;14.00;;;;;12.73;78.74;98542.22;5071897;28;45631;-61
2023/04/21 07:18:33;;;;;;;;;17.50;14.75;;;;;12.77;78.54;98542.88;5067175;27;45450;-61
2023/04/21 07:20:59;;;;;;;;;14.50;12.50;;;;;12.81;78.21;98541.75;5072255;27;45471;-61
2023/04/21 07:23:25;;;;;;;;;13.25;12.50;;;;;12.84;78.14;98550.38;5072796;27;45415;-61
2023/04/21 07:25:50;;;;;;;;;16.50;16.25;;;;;12.91;78.07;98543.75;5071334;28;45682;-61
2023/04/21 07:28:16;;;;;;;;;23.50;22.50;;;;;13.00;78.07;98547.69;5072071;27;45486;-61
2023/04/21 07:30:41;;;;;;;;;16.75;16.25;;;;;13.10;78.08;98545.31;5072496;28;45420;-61
2023/04/21 07:33:07;;;;;;;;;17.75;17.00;;;;;13.19;77.62;98537.75;5071894;28;45469;-61
2023/04/21 07:35:33;;;;;;;;;16.25;15.50;;;;;13.29;77.28;98543.31;5072194;27;45529;-61
2023/04/21 07:37:58;;;;;;;;;11.75;10.00;;;;;13.38;77.14;98542.78;5072921;28;45646;-61
2023/04/21 07:40:24;;;;;;;;;16.25;15.25;;;;;13.46;77.10;98534.34;5072170;27;45485;-61
2023/04/21 07:42:49;;;;;;;;;13.50;12.00;;;;;13.54;76.40;98535.59;5072301;27;45426;-62
2023/04/21 07:45:14;;;;;;;;;9.25;9.25;;;;;13.61;75.81;98544.84;5073366;28;45569;-61
2023/04/21 07:47:40;;;;;;;;;9.00;7.75;;;;;13.68;75.43;98539.19;5064777;27;46169;-61
2023/04/21 07:50:06;;;;;;;;;12.00;10.75;;;;;13.77;75.42;98535.94;5072607;27;45420;-61
2023/04/21 07:52:31;;;;;;;;;9.75;9.00;;;;;13.88;74.71;98537.00;5075704;27;45351;-61
2023/04/21 07:54:57;;;;;;;;;7.00;6.50;;;;;14.06;74.79;98523.53;5075659;27;45570;-61
2023/04/21 07:57:22;;;;;;;;;10.00;9.00;;;;;14.22;73.81;98527.75;5075369;27;45364;-59
2023/04/21 07:59:48;;;;;;;;;10.00;9.00;;;;;14.35;73.49;98526.97;5075809;28;45319;-61
2023/04/21 08:02:13;;;;;;;;;8.00;8.00;;;;;14.42;72.85;98525.63;5072184;28;45404;-60
2023/04/21 08:04:38;;;;;;;;;11.75;11.00;;;;;14.49;72.99;98519.84;5075599;27;45342;-60
2023/04/21 08:07:04;;;;;;;;;11.00;9.00;;;;;14.56;72.28;98510.53;5076041;27;45336;-61
2023/04/21 08:09:30;;;;;;;;;12.50;12.00;;;;;14.60;71.80;98521.78;5075878;27;45439;-61
2023/04/21 08:11:56;;;;;;;;;9.50;9.25;;;;;14.66;71.29;98530.19;5074956;27;45898;-61
2023/04/21 08:14:22;;;;;;;;;6.00;5.25;;;;;14.76;71.59;98522.44;5069275;28;45594;-61
2023/04/21 08:16:48;;;;;;;;;8.00;7.75;;;;;14.88;71.53;98534.06;5073404;27;45436;-61
2023/04/21 08:19:13;;;;;;;;;9.00;9.00;;;;;14.98;70.20;98525.38;5074008;28;45486;-61
2023/04/21 08:21:39;;;;;;;;;8.00;7.50;;;;;15.09;70.09;98516.69;5073866;28;46000;-61
2023/04/21 08:24:05;;;;;;;;;7.00;7.00;;;;;15.22;69.88;98519.38;5075619;27;45550;-61
2023/04/21 08:26:32;;;;;;;;;9.75;8.00;;;;;15.31;69.42;98513.41;5074776;28;46186;-61
2023/04/21 08:28:58;;;;;;;;;10.00;10.00;;;;;15.46;68.56;98516.81;5074773;27;45499;-61
2023/04/21 08:31:24;;;;;;;;;6.40;6.20;;;;;15.53;68.13;98518.94;5075411;27;45403;-61
2023/04/21 08:33:49;;;;;;;;;9.50;8.75;;;;;15.59;68.67;98520.34;5065221;27;45435;-61
2023/04/21 08:36:15;;;;;;;;;8.00;8.00;;;;;15.60;67.56;98519.38;5075216;27;46304;-61
2023/04/21 08:38:43;;;;;;;;;7.00;6.75;;;;;15.67;67.51;98528.63;5075264;27;45368;-61
2023/04/21 08:41:09;;;;;;;;;6.25;6.25;;;;;15.77;66.55;98527.00;5074779;27;45487;-61
2023/04/21 08:43:35;;;;;;;;;7.50;6.00;;;;;15.88;66.81;98531.59;5075283;28;45638;-61
2023/04/21 08:46:06;;;;;;;;;7.25;7.25;;;;;16.02;66.54;98531.44;5075149;27;46072;-61
2023/04/21 08:48:35;;;;;;;;;6.00;4.40;;;;;16.12;65.66;98526.31;5066800;28;45692;-61
2023/04/21 08:51:01;;;;;;;;;5.60;5.60;;;;;16.17;65.24;98527.69;5075102;27;45480;-61
2023/04/21 08:53:26;;;;;;;;;7.00;6.50;;;;;16.20;65.30;98534.59;5075328;27;45373;-60
2023/04/21 08:55:54;;;;;;;;;4.75;4.25;;;;;16.19;64.96;98528.44;5074792;27;45533;-60
2023/04/21 08:58:23;;;;;;;;;6.80;6.20;;;;;16.20;65.02;98519.50;5074544;27;45309;-60
2023/04/21 09:00:49;;;;;;;;;7.50;6.50;;;;;16.22;64.84;98517.56;5075041;28;45433;-61
2023/04/21 09:03:21;;;;;;;;;3.75;3.50;;;;;16.30;64.68;98525.81;5073822;27;45451;-61
2023/04/21 09:05:57;;;;;;;;;5.60;5.40;;;;;16.38;64.65;98518.16;5075244;27;46513;-61
2023/04/21 09:08:24;;;;;;;;;4.80;4.80;;;;;16.48;64.21;98528.09;5074552;27;45491;-61
2023/04/21 09:10:53;;;;;;;;;5.00;5.00;;;;;16.52;64.11;98533.09;5073105;28;45449;-60
2023/04/21 09:13:19;;;;;;;;;6.25;5.00;;;;;16.53;63.29;98529.47;5074827;27;45530;-60
2023/04/21 09:15:52;;;;;;;;;8.20;6.40;;;;;16.45;63.31;98534.50;5075053;28;46481;-61
2023/04/21 09:18:23;;;;;;;;;12.80;9.80;;;;;16.36;63.00;98525.41;5061232;27;45616;-60
2023/04/21 09:20:51;;;;;;;;;7.80;7.80;;;;;16.35;63.33;98541.47;5074943;27;45390;-61
2023/04/21 09:23:17;;;;;;;;;8.20;6.20;;;;;16.32;62.78;98534.56;5074542;27;45364;-61
2023/04/21 09:25:44;;;;;;;;;7.00;7.00;;;;;16.31;63.16;98535.50;5074438;28;46380;-60
2023/04/21 09:28:13;;;;;;;;;4.00;4.00;;;;;16.34;62.87;98535.28;5074260;28;45478;-61
2023/04/21 09:30:42;;;;;;;;;4.20;4.20;;;;;16.39;62.87;98540.28;5073226;27;45402;-60
2023/04/21 09:33:15;;;;;;;;;4.80;4.80;;;;;16.45;62.43;98537.16;5064906;28;45305;-60
2023/04/21 09:35:41;;;;;;;;;6.60;6.60;;;;;16.56;62.54;98534.56;5074766;27;46378;-61
2023/04/21 09:38:11;;;;;;;;;4.50;4.50;;;;;16.69;62.30;98547.84;5073979;27;45503;-60
2023/04/21 09:40:37;;;;;;;;;5.00;5.00;;;;;16.83;61.97;98542.34;5074171;27;45422;-61
2023/04/21 09:43:02;;;;;;;;;3.75;3.75;;;;;16.94;61.96;98534.38;5074048;27;45405;-60
2023/04/21 09:45:28;;;;;;;;;7.25;5.50;;;;;16.98;61.97;98543.84;5090097;27;46061;-61
2023/04/21 09:47:56;;;;;;;;;4.60;4.60;;;;;17.05;60.89;98538.94;5066644;28;45450;-61
2023/04/21 09:50:23;;;;;;;;;5.20;5.20;;;;;17.15;61.01;98539.06;5073902;27;45436;-61
2023/04/21 09:52:51;;;;;;;;;5.00;5.00;;;;;17.25;60.67;98543.59;5074077;27;45342;-60
2023/04/21 09:55:18;;;;;;;;;6.60;6.20;;;;;17.38;60.76;98535.50;5074127;27;45404;-60
2023/04/21 09:57:47;;;;;;;;;5.00;4.00;;;;;17.52;59.90;98526.44;5074119;27;45380;-61
2023/04/21 10:00:13;;;;;;;;;6.00;6.00;;;;;17.62;59.89;98535.38;5074242;28;45435;-61
2023/04/21 10:02:43;;;;;;;;;4.20;3.00;;;;;17.69;59.51;98526.84;5073167;27;45447;-61
2023/04/21 10:05:11;;;;;;;;;3.80;3.40;;;;;17.74;59.36;98519.34;5073663;27;45445;-61
2023/04/21 10:07:36;;;;;;;;;2.40;2.40;;;;;17.78;59.26;98517.25;5072482;28;45490;-61
2023/04/21 10:10:02;;;;;;;;;5.50;5.00;;;;;17.85;59.14;98509.63;5074267;27;45474;-62
2023/04/21 10:12:28;;;;;;;;;6.25;6.25;;;;;17.85;59.12;98513.16;5073461;28;45396;-62
2023/04/21 10:14:55;;;;;;;;;7.00;7.00;;;;;17.83;59.29;98519.56;5072983;28;45627;-62
2023/04/21 10:17:25;;;;;;;;;6.00;6.00;;;;;17.85;59.39;98517.63;5073372;27;45461;-62
2023/04/21 10:19:58;;;;;;;;;7.80;5.60;;;;;17.90;59.09;98510.13;5073754;28;45439;-62
2023/04/21 10:22:31;;;;;;;;;8.80;7.60;;;;;17.98;59.50;98507.69;5073422;27;45585;-62
2023/04/21 10:25:02;;;;;;;;;8.00;7.40;;;;;18.12;59.26;98510.06;5072042;28;46695;-63
2023/04/21 10:27:30;;;;;;;;;5.00;5.00;;;;;18.25;58.49;98497.47;5073746;27;45295;-62
2023/04/21 10:29:57;;;;;;;;;6.00;6.00;;;;;18.36;57.95;98494.75;5070714;28;45400;-62
2023/04/21 10:32:44;;;;;;;;;7.60;7.60;;;;;18.48;58.30;98493.75;5066243;27;45674;-62
2023/04/21 10:35:22;;;;;;;;;8.80;7.60;;;;;18.61;57.73;98490.94;5060262;28;47509;-62
2023/04/21 10:37:50;;;;;;;;;7.80;7.40;;;;;18.78;57.24;98492.19;5071199;28;45604;-62
2023/04/21 10:40:35;;;;;;;;;6.60;6.60;;;;;18.95;56.31;98494.31;5073674;27;45383;-62
2023/04/21 10:43:04;;;;;;;;;6.00;6.00;;;;;19.05;55.97;98484.56;5072170;28;45354;-62
2023/04/21 10:45:31;;;;;;;;;7.20;6.40;;;;;19.14;55.90;98486.44;5073269;28;46309;-60
2023/04/21 10:48:00;;;;;;;;;7.60;4.60;;;;;19.27;55.50;98483.53;5066215;27;45441;-61
2023/04/21 10:50:30;;;;;;;;;8.20;5.60;;;;;19.40;54.91;98494.91;5073407;27;45316;-61
2023/04/21 10:53:10;;;;;;;;;5.00;5.00;;;;;19.54;54.36;98495.56;5071880;28;45536;-61
2023/04/21 10:55:37;;;;;;;;;6.00;6.00;;;;;19.63;54.55;98486.72;5073196;27;46109;-61
2023/04/21 10:58:06;;;;;;;;;5.80;4.40;;;;;19.73;54.04;98482.28;5073312;27;45389;-61
2023/04/21 11:00:31;;;;;;;;;8.60;8.00;;;;;19.79;53.91;98489.75;5071572;28;45479;-61
2023/04/21 11:03:02;;;;;;;;;6.00;5.50;;;;;19.86;54.10;98481.06;5069867;27;45351;-61
2023/04/21 11:05:30;;;;;;;;;5.60;5.60;;;;;19.99;53.25;98485.31;5072618;27;46108;-61
2023/04/21 11:08:06;;;;;;;;;4.00;3.00;;;;;20.06;53.38;98476.63;5072681;27;45532;-61
2023/04/21 11:10:54;;;;;;;;;6.60;6.00;;;;;20.13;52.86;98483.09;5072232;28;45592;-61
2023/04/21 11:13:25;;;;;;;;;6.00;6.00;;;;;20.22;52.28;98476.09;5072735;28;45604;-61
2023/04/21 11:15:56;;;;;;;;;5.80;5.00;;;;;20.31;52.47;98471.72;5072069;28;46081;-61
2023/04/21 11:18:31;;;;;;;;;6.20;5.60;;;;;20.39;52.21;98467.44;5057790;28;45456;-61